Piedmont, Quebec

4:11 PM EDT on October 25, 2014 (GMT -0400)
prevost | Change Station
CLOSE
Current Station
Personal Weather Station
Location: Prévost, QUéBEC
Elevation: 560 ft
Nearby Weather Stations

Elev 560 ft 45.87 °N, 74.09 °W | Updated 5 seconds ago

Light Rain Showers
Light Showers Rain Mist
48.6 °F
Feels Like 49 °F
N
0.0
Wind Variable Wind from SE
Gusts 1.3 mph

Tomorrow is forecast to be nearly the same temperature as today.

Today
High -- | Low -- °F
--% Chance of Precip.
Yesterday
High -- | Low -- °F
Precip. -- in
7:26 AM 5:53 PM
Waxing Crescent, 4% visible
Pressure 29.52 in
Visibility 4.0 miles
Clouds Scattered Clouds 2200 ft
Mostly Cloudy 3500 ft
Overcast 4800 ft
Windchill 49 °F
Dew Point 46 °F
Humidity 90%
Rainfall 0.09 in
Snow Depth Not available.
UV 0 out of 12
Pollen Not available.
Air Quality Not available.
Flu Activity Not available.
METAR CYMX 252000Z 17003KT 4SM -SHRA BR SCT022 BKN035 OVC048 11/09 A2951 RMK SC3SC2SC3 SLP996

More Conditions Fewer Conditions

Pressure 29.52 in
Visibility 4.0 miles
Clouds Scattered Clouds 2200 ft
Mostly Cloudy 3500 ft
Overcast 4800 ft
Windchill 49 °F
Dew Point 46 °F
Humidity 90%
Rainfall 0.09 in
Snow Depth Not available.
UV 0 out of 12
Pollen Not available.
Air Quality Not available.
Flu Activity Not available.
METAR CYMX 252000Z 17003KT 4SM -SHRA BR SCT022 BKN035 OVC048 11/09 A2951 RMK SC3SC2SC3 SLP996

More Conditions Fewer Conditions

10-Day Weather Forecast

Almanac

Astronomy

Oct. 25, 2014 Rise Set
Actual Time 7:26 AM EDT 5:53 PM EDT
Civil Twilight 6:56 AM EDT 6:24 PM EDT
Nautical Twilight 6:21 AM EDT 6:58 PM EDT
Astronomical Twilight 5:46 AM EDT 7:33 PM EDT
Moon 9:06 AM EDT 7:09 PM EDT
Length of Visible Light 11h 27m
Length of Day
10h 26m
Tomorrow will be 3m 1s shorter.
Waxing Crescent, 4% of the Moon is Illuminated
Today
Waxing Crescent
Oct 30
First Quarter
Nov 6
Full
Nov 14
Last Quarter
Nov 22
New

Today's Extremes

Country Highs Country Lows

Community

WunderPhotos

Upload Photos

1,764,976 photos uploaded!

Nearby

Snow Depth

Not available.

Earthquake Activity

City Distance Mag. Time & Date
No recent earthquake activity has been reported nearby.
Minimum magnitude displayed is 2.5.

Coastal Water Temperatures

Place Temperature
No Stations Reporting

Nearby Weather Stations